Time;durP1;ratioP1;P1;durP2;ratioP2;P2;SDS_P1;SDS_P2;PMS_P1;PMS_P2;Temp;Humidity;BMP_temperature;BMP_pressure;BME280_temperature;BME280_humidity;BME280_pressure;Samples;Min_cycle;Max_cycle;Signal;HPM_P1;HPM_P2
2022/09/28 00:01:35;;;;;;;4.40;3.90;;;14.50;99.90;;;;;;5118054;27;20221;-72
2022/09/28 00:04:01;;;;;;;5.43;4.20;;;14.50;99.90;;;;;;5136894;27;20363;-72
2022/09/28 00:06:29;;;;;;;3.80;3.40;;;14.50;99.90;;;;;;5136543;27;20198;-73
2022/09/28 00:08:55;;;;;;;4.43;3.50;;;14.50;99.90;;;;;;5136856;27;20167;-73
2022/09/28 00:11:22;;;;;;;5.07;3.97;;;14.50;99.90;;;;;;5136317;27;20419;-73
2022/09/28 00:13:51;;;;;;;3.50;3.20;;;14.50;99.90;;;;;;5118190;27;20972;-72
2022/09/28 00:16:19;;;;;;;5.40;3.20;;;14.40;99.90;;;;;;5136190;27;20518;-73
2022/09/28 00:18:45;;;;;;;3.90;3.50;;;14.40;99.90;;;;;;5136749;27;20945;-73
2022/09/28 00:21:16;;;;;;;4.10;3.70;;;14.40;99.90;;;;;;5117651;27;20419;-73
2022/09/28 00:26:28;;;;;;;4.33;3.93;;;14.40;99.90;;;;;;5136308;27;20484;-73
2022/09/28 00:28:57;;;;;;;3.87;3.50;;;14.30;99.90;;;;;;5136319;27;20407;-73
2022/09/28 00:31:23;;;;;;;5.10;3.73;;;14.30;99.90;;;;;;5135947;27;20965;-73
2022/09/28 00:33:55;;;;;;;4.90;3.43;;;14.30;99.90;;;;;;5117765;27;20923;-72
2022/09/28 00:36:22;;;;;;;3.60;3.10;;;14.30;99.90;;;;;;5135885;27;20426;-73
2022/09/28 00:38:47;;;;;;;8.13;3.67;;;14.30;99.90;;;;;;5117603;27;20427;-73
2022/09/28 00:41:14;;;;;;;5.30;3.03;;;14.20;99.90;;;;;;5117280;27;20423;-73
2022/09/28 00:43:39;;;;;;;5.10;3.50;;;14.20;99.90;;;;;;5117167;27;20329;-73
2022/09/28 00:46:32;;;;;;;3.90;3.50;;;14.20;99.90;;;;;;5135546;27;20541;-73
2022/09/28 00:49:07;;;;;;;3.53;3.03;;;14.20;99.90;;;;;;5096685;27;20195;-73
2022/09/28 00:51:37;;;;;;;3.90;3.50;;;14.20;99.90;;;;;;5135535;27;20460;-73
2022/09/28 00:54:06;;;;;;;3.13;2.70;;;14.10;99.90;;;;;;5136102;27;20430;-73
2022/09/28 00:56:33;;;;;;;4.10;3.10;;;14.10;99.90;;;;;;5117026;27;20420;-73
2022/09/28 00:58:59;;;;;;;3.30;2.97;;;14.10;99.90;;;;;;5135854;27;20915;-73
2022/09/28 01:01:27;;;;;;;3.50;3.20;;;14.10;99.90;;;;;;5135451;27;20428;-73
2022/09/28 01:03:53;;;;;;;4.97;3.03;;;14.10;99.90;;;;;;5116961;27;20475;-73
2022/09/28 01:06:22;;;;;;;3.43;3.13;;;14.10;99.90;;;;;;5116858;27;20437;-73
2022/09/28 01:08:51;;;;;;;3.10;2.57;;;14.10;99.90;;;;;;5135852;27;20415;-73
2022/09/28 01:11:18;;;;;;;2.77;2.40;;;14.10;99.90;;;;;;5116772;27;20430;-73
2022/09/28 01:13:45;;;;;;;3.33;2.63;;;14.10;99.90;;;;;;5135185;27;20420;-73
2022/09/28 01:16:30;;;;;;;2.60;2.40;;;14.10;99.90;;;;;;5135012;27;20421;-73
2022/09/28 01:19:14;;;;;;;2.80;2.60;;;14.20;99.90;;;;;;5135547;27;20810;-73
2022/09/28 01:22:06;;;;;;;3.03;2.40;;;14.20;99.90;;;;;;5135166;27;20419;-72
2022/09/28 01:24:45;;;;;;;3.10;2.60;;;14.20;99.90;;;;;;5116462;27;20521;-73
2022/09/28 01:27:13;;;;;;;2.30;2.13;;;14.20;99.90;;;;;;5116621;27;20425;-73
2022/09/28 01:30:00;;;;;;;3.00;2.43;;;14.20;99.90;;;;;;5116498;27;20427;-73
2022/09/28 01:32:26;;;;;;;7.40;2.30;;;14.20;99.90;;;;;;5135098;27;20413;-73
2022/09/28 01:34:58;;;;;;;2.33;1.80;;;14.20;99.90;;;;;;5134925;27;20423;-73
2022/09/28 01:37:31;;;;;;;2.50;2.30;;;14.20;99.90;;;;;;5135114;27;20624;-73
2022/09/28 01:40:00;;;;;;;2.37;1.93;;;14.20;99.90;;;;;;5116445;27;20809;-72
2022/09/28 01:42:29;;;;;;;5.53;2.47;;;14.20;99.90;;;;;;5134533;28;20553;-72
2022/09/28 01:45:02;;;;;;;3.37;2.97;;;14.20;99.90;;;;;;5116210;27;21006;-73
2022/09/28 01:47:32;;;;;;;3.80;2.23;;;14.20;99.90;;;;;;5116454;28;20433;-72
2022/09/28 01:50:06;;;;;;;3.20;2.90;;;14.20;99.90;;;;;;5134663;28;20813;-73
2022/09/28 01:52:43;;;;;;;4.73;3.07;;;14.20;99.90;;;;;;5134885;28;20422;-73
2022/09/28 01:55:14;;;;;;;7.07;5.40;;;14.10;99.90;;;;;;5134619;28;20833;-73
2022/09/28 01:58:14;;;;;;;10.30;7.67;;;14.10;99.90;;;;;;5135071;28;20408;-72
2022/09/28 02:00:45;;;;;;;14.60;8.07;;;14.10;99.90;;;;;;5067550;27;20447;-73
2022/09/28 02:03:17;;;;;;;13.27;7.70;;;14.10;99.90;;;;;;5120668;27;20466;-73
2022/09/28 02:06:11;;;;;;;10.43;7.80;;;14.10;99.90;;;;;;5138855;27;20502;-73
2022/09/28 02:08:43;;;;;;;7.00;6.30;;;14.10;99.90;;;;;;5093120;27;20451;-73
2022/09/28 02:11:15;;;;;;;7.20;5.37;;;14.10;99.90;;;;;;5120287;27;20939;-72
2022/09/28 02:13:57;;;;;;;5.00;3.90;;;14.00;99.90;;;;;;5120471;27;20435;-72
2022/09/28 02:16:37;;;;;;;3.40;3.10;;;14.10;99.90;;;;;;5138590;27;20855;-73
2022/09/28 02:19:04;;;;;;;3.40;3.10;;;14.10;99.90;;;;;;5139071;27;20479;-73
2022/09/28 02:22:07;;;;;;;2.33;2.13;;;14.00;99.90;;;;;;5120007;27;20427;-73
2022/09/28 02:24:48;;;;;;;2.63;2.40;;;14.00;99.90;;;;;;5138340;27;20481;-72
2022/09/28 02:27:37;;;;;;;1.93;1.73;;;14.00;99.90;;;;;;5138388;27;20511;-72
2022/09/28 02:30:04;;;;;;;3.07;2.20;;;14.00;99.90;;;;;;5082180;27;20431;-72
2022/09/28 02:32:33;;;;;;;2.80;1.90;;;14.10;99.90;;;;;;5138229;27;20427;-73
2022/09/28 02:35:00;;;;;;;2.20;1.90;;;14.00;99.90;;;;;;5138215;27;20429;-73
2022/09/28 02:37:26;;;;;;;2.60;1.97;;;14.00;99.90;;;;;;5138327;27;20533;-73
2022/09/28 02:39:52;;;;;;;2.00;1.77;;;14.00;99.90;;;;;;5119681;27;20433;-72
2022/09/28 02:42:32;;;;;;;4.10;1.63;;;14.00;99.90;;;;;;5137883;27;20896;-73
2022/09/28 02:45:30;;;;;;;2.20;2.00;;;14.00;99.90;;;;;;5119539;27;20271;-73
2022/09/28 02:48:14;;;;;;;2.20;2.00;;;14.00;99.90;;;;;;5138142;27;20445;-72
2022/09/28 02:51:13;;;;;;;2.23;1.77;;;14.00;99.90;;;;;;5119344;27;20419;-73
2022/09/28 02:53:47;;;;;;;2.23;1.50;;;14.00;99.90;;;;;;5119745;27;20427;-72
2022/09/28 02:56:24;;;;;;;1.60;1.50;;;14.10;99.90;;;;;;5137817;27;20919;-73
2022/09/28 02:59:04;;;;;;;1.83;1.73;;;14.10;99.90;;;;;;5138272;27;20767;-73
2022/09/28 03:02:10;;;;;;;3.07;1.80;;;14.10;99.90;;;;;;5137718;27;20411;-73
2022/09/28 03:04:51;;;;;;;1.60;1.50;;;14.10;99.90;;;;;;5137614;27;20554;-73
2022/09/28 03:07:38;;;;;;;2.13;1.70;;;14.10;99.90;;;;;;5137603;27;20464;-73
2022/09/28 03:10:06;;;;;;;2.00;1.80;;;14.10;99.90;;;;;;5137591;27;20419;-72
2022/09/28 03:12:33;;;;;;;2.90;1.70;;;14.10;99.90;;;;;;5136829;27;20454;-73
2022/09/28 03:15:26;;;;;;;1.80;1.70;;;14.10;99.90;;;;;;5137393;27;20438;-72
2022/09/28 03:17:52;;;;;;;1.93;1.63;;;14.20;99.90;;;;;;5134320;27;20946;-73
2022/09/28 03:20:18;;;;;;;1.67;1.57;;;14.20;99.90;;;;;;5118990;27;20478;-72
2022/09/28 03:22:44;;;;;;;3.90;1.73;;;14.20;99.90;;;;;;5137599;27;20190;-73
2022/09/28 03:25:10;;;;;;;2.53;2.00;;;14.20;99.90;;;;;;5118733;27;20842;-73
2022/09/28 03:27:36;;;;;;;2.20;1.87;;;14.20;99.90;;;;;;5118924;27;20453;-72
2022/09/28 03:30:03;;;;;;;2.70;1.90;;;14.10;99.90;;;;;;5137082;27;20922;-73
2022/09/28 03:32:28;;;;;;;2.13;1.63;;;14.10;99.90;;;;;;5137325;27;20607;-73
2022/09/28 03:34:54;;;;;;;1.70;1.60;;;14.10;99.90;;;;;;5137067;27;20954;-73
2022/09/28 03:37:20;;;;;;;1.70;1.60;;;14.10;99.90;;;;;;5137248;27;20194;-73
2022/09/28 03:39:46;;;;;;;1.77;1.57;;;14.00;99.90;;;;;;5137021;27;20415;-73
2022/09/28 03:42:11;;;;;;;1.60;1.50;;;14.00;99.90;;;;;;5136733;27;20760;-73
2022/09/28 03:44:37;;;;;;;3.10;2.23;;;14.00;99.90;;;;;;5136970;27;20709;-73
2022/09/28 03:47:03;;;;;;;5.10;2.07;;;14.00;99.90;;;;;;5136859;27;20688;-73
2022/09/28 03:49:28;;;;;;;2.80;2.07;;;13.90;99.90;;;;;;5118396;27;20197;-73
2022/09/28 03:51:54;;;;;;;2.43;2.10;;;13.90;99.90;;;;;;5136646;27;20403;-73
2022/09/28 03:54:20;;;;;;;2.13;1.93;;;13.90;99.90;;;;;;5136693;27;20631;-73
2022/09/28 03:56:45;;;;;;;3.10;2.07;;;13.90;99.90;;;;;;5136640;27;20177;-73
2022/09/28 03:59:11;;;;;;;3.30;2.30;;;13.80;99.90;;;;;;5137108;27;20797;-73
2022/09/28 04:01:36;;;;;;;2.60;2.27;;;13.80;99.90;;;;;;5118137;27;20191;-72
2022/09/28 04:04:02;;;;;;;3.00;2.67;;;13.80;99.90;;;;;;5118309;27;20214;-73
2022/09/28 04:06:27;;;;;;;6.33;2.93;;;13.80;99.90;;;;;;5136480;27;20214;-72
2022/09/28 04:08:53;;;;;;;4.70;2.50;;;13.80;99.90;;;;;;5136863;27;20266;-73
2022/09/28 04:11:19;;;;;;;3.50;2.53;;;13.70;99.90;;;;;;5136166;27;20191;-73
2022/09/28 04:13:48;;;;;;;4.73;2.63;;;13.70;99.90;;;;;;5136833;27;20493;-73
2022/09/28 04:16:14;;;;;;;5.70;3.77;;;13.70;99.90;;;;;;5117774;27;20203;-73
2022/09/28 04:18:41;;;;;;;6.30;3.90;;;13.60;99.90;;;;;;5136731;27;20419;-73
2022/09/28 04:21:10;;;;;;;8.27;3.20;;;13.60;99.90;;;;;;5136033;27;20510;-73
2022/09/28 04:23:38;;;;;;;3.43;2.70;;;13.50;99.90;;;;;;5134909;27;20516;-72
2022/09/28 04:26:05;;;;;;;5.67;2.33;;;13.40;99.90;;;;;;5136074;27;20466;-73
2022/09/28 04:31:20;;;;;;;4.33;2.50;;;13.30;99.90;;;;;;5133251;27;20468;-73
2022/09/28 04:33:46;;;;;;;3.53;2.37;;;13.30;99.90;;;;;;5115099;27;20439;-73
2022/09/28 04:36:12;;;;;;;4.50;2.13;;;13.20;99.90;;;;;;5130060;27;20427;-73
2022/09/28 04:38:38;;;;;;;2.40;2.20;;;13.10;99.90;;;;;;5096150;27;20183;-72
2022/09/28 04:41:04;;;;;;;2.17;2.00;;;13.10;99.90;;;;;;5113564;27;20527;-73
2022/09/28 04:43:30;;;;;;;2.03;1.90;;;13.10;99.90;;;;;;5112245;27;20551;-72
2022/09/28 04:46:00;;;;;;;2.47;2.27;;;13.10;99.90;;;;;;5133655;27;20411;-72
2022/09/28 04:48:26;;;;;;;3.60;1.90;;;13.00;99.90;;;;;;5117376;27;20513;-73
2022/09/28 04:50:56;;;;;;;4.43;2.60;;;13.00;99.90;;;;;;5134569;27;21082;-73
2022/09/28 04:53:23;;;;;;;2.27;2.03;;;13.00;99.90;;;;;;5116467;27;20447;-72
2022/09/28 04:56:07;;;;;;;3.40;2.60;;;13.00;99.90;;;;;;5105190;28;20463;-72
2022/09/28 04:58:34;;;;;;;2.80;2.37;;;13.00;99.90;;;;;;5134215;27;20442;-73
2022/09/28 05:01:05;;;;;;;2.93;2.63;;;12.90;99.90;;;;;;5126809;27;20443;-73
2022/09/28 05:03:31;;;;;;;2.20;2.00;;;12.90;99.90;;;;;;5120117;27;20460;-72
2022/09/28 05:05:57;;;;;;;3.03;2.50;;;12.90;99.90;;;;;;5123784;27;20496;-73
2022/09/28 05:08:23;;;;;;;3.40;3.10;;;12.90;99.90;;;;;;5135297;27;20521;-73
2022/09/28 05:10:58;;;;;;;3.43;2.30;;;12.90;99.90;;;;;;5126897;27;20470;-72
2022/09/28 05:13:23;;;;;;;6.10;2.63;;;12.90;99.90;;;;;;5112395;27;20465;-73
2022/09/28 05:15:52;;;;;;;4.70;2.50;;;12.90;99.90;;;;;;5132994;27;20458;-73
2022/09/28 05:18:17;;;;;;;3.10;2.30;;;12.90;99.90;;;;;;5124514;27;20206;-73
2022/09/28 05:20:43;;;;;;;2.23;1.97;;;12.90;99.90;;;;;;5114121;27;20511;-73
2022/09/28 05:23:14;;;;;;;3.93;2.63;;;12.90;99.90;;;;;;5130169;27;20179;-73
2022/09/28 05:25:40;;;;;;;4.00;2.80;;;12.80;99.90;;;;;;5133639;27;20629;-73
2022/09/28 05:28:06;;;;;;;5.23;2.70;;;12.80;99.90;;;;;;5104111;28;20435;-73
2022/09/28 05:30:33;;;;;;;5.43;2.30;;;12.80;99.90;;;;;;5125344;27;20951;-72
2022/09/28 05:32:59;;;;;;;2.77;2.40;;;12.80;99.90;;;;;;5100142;28;20432;-73
2022/09/28 05:35:25;;;;;;;3.53;3.23;;;12.80;99.90;;;;;;5106362;27;20538;-73
2022/09/28 05:37:50;;;;;;;4.90;2.60;;;12.70;99.90;;;;;;5134738;27;20183;-73
2022/09/28 05:40:16;;;;;;;6.53;2.70;;;12.70;99.90;;;;;;5128870;27;20230;-73
2022/09/28 05:42:42;;;;;;;3.83;2.30;;;12.70;99.90;;;;;;5131856;27;20227;-73
2022/09/28 05:45:09;;;;;;;3.60;2.70;;;12.80;99.90;;;;;;5118302;28;20657;-73
2022/09/28 05:47:39;;;;;;;3.67;2.70;;;12.80;99.90;;;;;;5125350;27;20513;-73
2022/09/28 05:50:06;;;;;;;4.50;2.70;;;12.80;99.90;;;;;;5129677;27;20434;-73
2022/09/28 05:52:32;;;;;;;4.03;2.67;;;12.80;99.90;;;;;;5129796;27;20954;-73
2022/09/28 05:54:58;;;;;;;3.27;2.97;;;12.80;99.90;;;;;;5132161;28;20439;-73
2022/09/28 05:57:23;;;;;;;3.33;2.70;;;12.80;99.90;;;;;;5115107;28;20195;-73
2022/09/28 05:59:49;;;;;;;4.53;3.20;;;12.80;99.90;;;;;;5123467;28;20329;-73
2022/09/28 06:02:14;;;;;;;5.60;2.50;;;12.80;99.90;;;;;;5107071;28;20254;-73
2022/09/28 06:04:40;;;;;;;4.50;3.40;;;12.80;99.90;;;;;;5118250;27;20228;-72
2022/09/28 06:07:05;;;;;;;5.13;4.03;;;12.80;99.90;;;;;;5104441;28;20182;-73
2022/09/28 06:09:31;;;;;;;3.77;2.70;;;12.90;99.90;;;;;;5126124;28;20278;-72
2022/09/28 06:11:58;;;;;;;3.90;2.83;;;12.90;99.90;;;;;;5132513;28;20171;-74
2022/09/28 06:14:24;;;;;;;6.10;2.73;;;12.90;99.90;;;;;;5124870;28;20191;-73
2022/09/28 06:16:50;;;;;;;3.43;2.80;;;13.00;99.90;;;;;;5126914;28;20780;-72
2022/09/28 06:19:17;;;;;;;2.87;2.50;;;13.00;99.90;;;;;;5103650;27;20991;-73
2022/09/28 06:21:42;;;;;;;4.67;2.57;;;13.10;99.90;;;;;;5123585;27;20476;-72
2022/09/28 06:24:08;;;;;;;2.80;2.60;;;13.20;99.90;;;;;;5126352;27;20482;-73
2022/09/28 06:26:34;;;;;;;3.47;3.17;;;13.20;99.90;;;;;;5130497;28;20235;-72
2022/09/28 06:28:59;;;;;;;4.53;2.87;;;13.20;99.90;;;;;;5130764;28;20780;-73
2022/09/28 06:31:26;;;;;;;4.23;2.50;;;13.30;99.90;;;;;;5103231;28;20203;-73
2022/09/28 06:33:51;;;;;;;3.33;3.00;;;13.30;99.90;;;;;;5116793;28;20226;-73
2022/09/28 06:36:19;;;;;;;2.53;2.33;;;13.40;99.90;;;;;;5099850;28;20470;-73
2022/09/28 06:38:46;;;;;;;2.60;2.37;;;13.40;99.90;;;;;;5108198;28;20178;-73
2022/09/28 06:41:11;;;;;;;3.20;2.50;;;13.40;99.90;;;;;;5093101;28;20443;-72
2022/09/28 06:43:40;;;;;;;2.50;2.30;;;13.40;99.90;;;;;;5111368;28;20478;-73
2022/09/28 06:46:08;;;;;;;4.00;2.57;;;13.40;99.90;;;;;;5131874;27;20216;-72
2022/09/28 06:48:34;;;;;;;3.87;2.73;;;13.40;99.90;;;;;;5114959;27;20433;-73
2022/09/28 06:51:01;;;;;;;3.10;2.80;;;13.50;99.90;;;;;;5106014;27;20457;-73
2022/09/28 06:53:27;;;;;;;3.03;2.83;;;13.50;99.90;;;;;;5124345;27;20422;-72
2022/09/28 06:55:54;;;;;;;2.80;2.43;;;13.50;99.90;;;;;;5122577;27;20482;-72
2022/09/28 06:58:21;;;;;;;3.30;3.00;;;13.60;99.90;;;;;;5102645;27;20428;-73
2022/09/28 07:00:49;;;;;;;4.17;2.60;;;13.60;99.90;;;;;;5101320;27;20447;-73
2022/09/28 07:03:17;;;;;;;3.30;3.00;;;13.70;99.90;;;;;;5103536;27;20529;-73
2022/09/28 07:05:45;;;;;;;3.30;3.00;;;13.80;99.90;;;;;;5107829;27;20486;-72
2022/09/28 07:08:11;;;;;;;2.57;2.37;;;13.90;99.90;;;;;;5128993;27;20509;-73
2022/09/28 07:10:46;;;;;;;2.90;2.60;;;13.90;99.90;;;;;;5123909;27;20871;-73
2022/09/28 07:13:13;;;;;;;5.63;3.03;;;14.00;99.90;;;;;;5133499;27;20434;-73
2022/09/28 07:15:39;;;;;;;3.50;3.00;;;14.10;99.90;;;;;;5124487;27;20520;-72
2022/09/28 07:18:06;;;;;;;3.70;2.40;;;14.10;99.90;;;;;;5127174;27;20823;-73
2022/09/28 07:20:36;;;;;;;2.77;2.40;;;14.20;99.90;;;;;;5125970;27;20431;-73
2022/09/28 07:23:04;;;;;;;2.30;2.07;;;14.20;99.90;;;;;;5125198;27;20419;-73
2022/09/28 07:25:31;;;;;;;3.03;2.60;;;14.30;99.90;;;;;;5107516;27;20820;-73
2022/09/28 07:27:58;;;;;;;3.07;2.67;;;14.30;99.90;;;;;;5125953;27;20827;-73
2022/09/28 07:30:26;;;;;;;2.57;2.33;;;14.40;99.90;;;;;;5122353;27;20428;-72
2022/09/28 07:32:55;;;;;;;2.47;2.23;;;14.50;99.90;;;;;;5126532;27;20755;-72
2022/09/28 07:35:21;;;;;;;2.93;1.97;;;14.60;99.90;;;;;;5124444;27;20452;-73
2022/09/28 07:37:47;;;;;;;2.87;2.40;;;14.70;99.90;;;;;;5124664;27;20435;-73
2022/09/28 07:43:05;;;;;;;2.27;1.80;;;15.00;99.90;;;;;;5120306;27;20490;-73
2022/09/28 07:45:35;;;;;;;2.10;1.80;;;15.20;99.90;;;;;;5130248;27;20447;-73
2022/09/28 07:48:01;;;;;;;1.90;1.60;;;15.50;99.90;;;;;;5127614;27;20424;-73
2022/09/28 07:50:27;;;;;;;1.20;1.10;;;15.60;99.90;;;;;;5110184;27;20450;-73
2022/09/28 07:52:54;;;;;;;1.53;0.90;;;15.70;99.90;;;;;;5110399;27;20427;-73
2022/09/28 07:55:20;;;;;;;6.93;1.90;;;15.80;99.90;;;;;;5134192;27;20660;-73
2022/09/28 07:57:46;;;;;;;1.70;1.40;;;15.90;99.90;;;;;;5114322;27;20534;-73
2022/09/28 08:00:13;;;;;;;1.93;1.50;;;16.00;99.90;;;;;;5114049;27;20600;-73
2022/09/28 08:02:38;;;;;;;1.00;0.90;;;16.20;99.90;;;;;;5121892;27;20423;-73
2022/09/28 08:05:04;;;;;;;1.40;1.20;;;16.60;99.90;;;;;;5105259;27;20485;-73
2022/09/28 08:07:31;;;;;;;1.30;1.20;;;17.10;99.90;;;;;;5121063;27;20183;-74
2022/09/28 08:09:57;;;;;;;1.63;1.53;;;17.80;99.90;;;;;;5100849;27;20526;-73
2022/09/28 08:12:22;;;;;;;1.20;1.10;;;18.70;99.90;;;;;;5122963;27;20895;-73
2022/09/28 08:14:49;;;;;;;2.40;1.00;;;19.70;99.90;;;;;;5131280;27;20217;-73
2022/09/28 08:17:15;;;;;;;1.10;0.90;;;20.80;99.90;;;;;;5110540;27;20269;-73
2022/09/28 08:22:25;;;;;;;1.73;1.03;;;22.70;99.90;;;;;;5124561;27;20579;-73
2022/09/28 08:24:51;;;;;;;2.70;1.00;;;23.80;99.90;;;;;;5117886;27;20559;-73
2022/09/28 08:27:17;;;;;;;1.90;1.10;;;24.70;99.90;;;;;;5121815;27;20183;-73
2022/09/28 08:29:43;;;;;;;0.93;0.80;;;25.40;99.90;;;;;;5102434;28;20211;-73
2022/09/28 08:32:09;;;;;;;1.00;0.90;;;26.10;99.90;;;;;;5104073;28;20421;-74
2022/09/28 08:34:40;;;;;;;0.90;0.90;;;26.70;97.80;;;;;;5116802;27;20201;-73
2022/09/28 08:37:07;;;;;;;3.10;0.97;;;27.20;96.90;;;;;;5118677;27;20421;-74
2022/09/28 08:39:34;;;;;;;0.90;0.73;;;27.80;93.50;;;;;;5095371;27;20442;-73
2022/09/28 08:42:19;;;;;;;0.90;0.83;;;28.20;91.70;;;;;;5103452;27;20419;-73
2022/09/28 08:44:50;;;;;;;1.10;0.87;;;28.50;90.00;;;;;;5110648;27;20481;-73
2022/09/28 08:50:21;;;;;;;0.80;0.80;;;28.10;86.60;;;;;;5117117;27;20451;-73
2022/09/28 08:52:52;;;;;;;1.57;0.90;;;27.40;86.80;;;;;;5131263;27;20883;-73
2022/09/28 08:55:31;;;;;;;1.00;0.87;;;26.70;87.40;;;;;;5124415;27;20443;-74
2022/09/28 08:58:16;;;;;;;1.00;0.67;;;26.00;89.60;;;;;;5115578;27;20460;-73
2022/09/28 09:00:46;;;;;;;0.57;0.50;;;25.30;89.60;;;;;;5101946;28;20451;-73
2022/09/28 09:03:16;;;;;;;0.70;0.70;;;24.70;90.00;;;;;;5101712;27;20519;-73
2022/09/28 09:06:07;;;;;;;0.60;0.60;;;24.20;90.20;;;;;;5120443;27;20440;-73
2022/09/28 09:08:41;;;;;;;0.97;0.87;;;23.70;90.90;;;;;;5132885;27;20435;-73
2022/09/28 09:11:28;;;;;;;0.93;0.80;;;23.20;92.20;;;;;;5126620;27;20453;-73
2022/09/28 09:14:18;;;;;;;1.13;1.03;;;22.80;92.20;;;;;;5114879;27;20522;-73
2022/09/28 09:17:12;;;;;;;1.63;0.73;;;22.50;92.60;;;;;;5127319;27;20443;-73
2022/09/28 09:20:03;;;;;;;0.80;0.80;;;22.10;93.10;;;;;;5129016;27;20467;-73
2022/09/28 09:22:49;;;;;;;1.17;1.07;;;21.80;93.80;;;;;;5126379;27;20932;-73
2022/09/28 09:25:33;;;;;;;1.00;1.00;;;21.60;94.60;;;;;;5109069;27;20531;-72
2022/09/28 09:28:11;;;;;;;1.73;1.00;;;21.40;94.30;;;;;;5125071;27;20429;-73
2022/09/28 09:31:03;;;;;;;1.57;0.90;;;21.20;94.80;;;;;;5125127;27;20447;-73
2022/09/28 09:33:56;;;;;;;1.00;1.00;;;21.00;95.40;;;;;;5097592;27;20535;-73
2022/09/28 09:36:47;;;;;;;1.87;1.20;;;20.80;95.10;;;;;;5123501;27;20463;-73
2022/09/28 09:39:40;;;;;;;1.90;1.40;;;20.70;95.60;;;;;;5121832;27;20448;-73
2022/09/28 09:42:29;;;;;;;4.33;0.90;;;20.50;96.70;;;;;;5116838;27;20434;-73
2022/09/28 09:45:04;;;;;;;0.70;0.70;;;20.40;95.50;;;;;;5112275;27;20583;-74
2022/09/28 09:47:35;;;;;;;0.70;0.60;;;20.30;95.70;;;;;;5115898;27;20886;-74
2022/09/28 09:50:24;;;;;;;0.93;0.57;;;20.20;95.50;;;;;;5096356;28;20446;-73
2022/09/28 09:52:56;;;;;;;3.50;1.70;;;20.20;95.20;;;;;;5097229;28;20885;-73
2022/09/28 09:55:40;;;;;;;2.30;1.30;;;20.10;95.20;;;;;;5105507;28;20518;-73
2022/09/28 09:58:20;;;;;;;1.53;1.20;;;20.00;95.50;;;;;;5101352;28;20442;-74
2022/09/28 10:00:49;;;;;;;1.67;1.10;;;20.10;95.30;;;;;;5117215;28;20455;-72
2022/09/28 10:03:21;;;;;;;1.90;1.40;;;20.00;96.00;;;;;;5116157;28;20853;-73
2022/09/28 10:06:06;;;;;;;1.47;0.77;;;20.00;96.40;;;;;;5121423;28;20455;-74
2022/09/28 10:08:38;;;;;;;0.97;0.87;;;20.00;97.10;;;;;;5100645;28;20426;-73
2022/09/28 10:11:07;;;;;;;0.70;0.70;;;19.90;97.10;;;;;;5096650;28;20457;-73
2022/09/28 10:13:33;;;;;;;1.50;1.40;;;19.80;96.80;;;;;;5122482;27;20445;-73
2022/09/28 10:15:59;;;;;;;1.20;1.10;;;19.70;96.80;;;;;;5119960;28;20760;-74
2022/09/28 10:18:26;;;;;;;1.30;1.03;;;19.50;96.30;;;;;;5115054;28;20937;-73
2022/09/28 10:20:52;;;;;;;1.50;1.40;;;19.40;97.20;;;;;;5114268;27;20574;-73
2022/09/28 10:23:24;;;;;;;1.60;1.33;;;19.40;97.20;;;;;;5131579;27;20867;-73
2022/09/28 10:25:58;;;;;;;2.40;1.50;;;19.40;97.10;;;;;;5130470;27;20226;-73
2022/09/28 10:28:44;;;;;;;3.10;1.30;;;19.40;97.80;;;;;;5131463;27;20446;-73
2022/09/28 10:31:48;;;;;;;1.20;1.07;;;19.40;97.80;;;;;;5117221;27;20454;-73
2022/09/28 10:34:17;;;;;;;1.47;1.37;;;19.40;97.80;;;;;;5004761;28;20524;-73
2022/09/28 10:36:57;;;;;;;1.77;1.53;;;19.30;97.70;;;;;;5114415;27;20615;-73
2022/09/28 10:39:54;;;;;;;1.77;1.30;;;19.30;98.40;;;;;;5132242;27;20422;-73
2022/09/28 10:42:27;;;;;;;0.83;0.83;;;19.30;99.60;;;;;;5129180;27;20823;-73
2022/09/28 10:45:04;;;;;;;1.10;1.00;;;19.30;99.40;;;;;;5105920;27;20474;-72
2022/09/28 10:47:31;;;;;;;0.80;0.80;;;19.30;97.10;;;;;;5115027;27;20443;-73
2022/09/28 10:49:59;;;;;;;4.10;1.27;;;19.30;97.10;;;;;;5124301;27;20450;-73
2022/09/28 10:52:29;;;;;;;1.10;0.60;;;19.20;97.70;;;;;;5120610;27;20465;-73
2022/09/28 10:54:55;;;;;;;1.90;1.80;;;19.20;97.70;;;;;;5123000;27;20445;-73
2022/09/28 10:57:35;;;;;;;1.10;1.00;;;19.30;97.90;;;;;;5101441;27;20435;-73
2022/09/28 11:00:03;;;;;;;0.80;0.70;;;19.30;98.60;;;;;;5097054;27;20217;-73
2022/09/28 11:02:37;;;;;;;1.00;0.80;;;19.30;97.60;;;;;;5102255;27;20427;-73
2022/09/28 11:05:05;;;;;;;2.43;0.63;;;19.30;96.80;;;;;;5120790;27;20490;-73
2022/09/28 11:07:32;;;;;;;0.67;0.50;;;19.30;97.70;;;;;;5125840;27;20409;-73
2022/09/28 11:10:00;;;;;;;1.13;0.50;;;19.30;97.00;;;;;;5118429;27;20446;-73
2022/09/28 11:12:42;;;;;;;1.57;0.70;;;19.30;97.00;;;;;;5106283;27;20441;-73
2022/09/28 11:15:17;;;;;;;0.97;0.70;;;19.30;96.40;;;;;;5109005;27;20462;-73
2022/09/28 11:17:43;;;;;;;0.57;0.50;;;19.40;97.40;;;;;;5121395;27;20445;-73
2022/09/28 11:20:23;;;;;;;1.70;0.60;;;19.40;97.20;;;;;;5124474;27;20497;-73
2022/09/28 11:22:51;;;;;;;0.67;0.57;;;19.40;97.10;;;;;;5128530;27;20267;-73
2022/09/28 11:25:16;;;;;;;0.60;0.60;;;19.40;96.70;;;;;;5124906;27;20514;-73
2022/09/28 11:27:55;;;;;;;0.90;0.63;;;19.40;96.90;;;;;;5124132;27;20438;-73
2022/09/28 11:30:23;;;;;;;0.70;0.70;;;19.40;96.80;;;;;;5105041;27;20736;-73
2022/09/28 11:32:51;;;;;;;0.70;0.70;;;19.40;96.90;;;;;;5105154;27;20517;-73
2022/09/28 11:35:22;;;;;;;0.73;0.73;;;19.40;97.70;;;;;;5131550;27;20449;-73
2022/09/28 11:38:05;;;;;;;0.80;0.70;;;19.40;97.70;;;;;;5106988;27;20479;-73
2022/09/28 11:40:42;;;;;;;0.77;0.77;;;19.40;97.50;;;;;;5119391;27;20439;-73
2022/09/28 11:43:43;;;;;;;1.20;0.70;;;19.40;98.00;;;;;;5108268;27;21187;-73
2022/09/28 11:46:27;;;;;;;0.67;0.63;;;19.40;98.00;;;;;;5101465;27;20453;-73
2022/09/28 11:49:09;;;;;;;0.87;0.70;;;19.40;96.70;;;;;;5122961;27;21081;-73
2022/09/28 11:51:38;;;;;;;1.47;0.47;;;19.40;95.50;;;;;;5125665;27;20439;-73
2022/09/28 11:54:13;;;;;;;0.70;0.60;;;19.40;96.30;;;;;;5106101;27;20529;-73
2022/09/28 11:56:43;;;;;;;0.53;0.53;;;19.40;96.50;;;;;;5125556;27;20445;-73
2022/09/28 11:59:27;;;;;;;0.80;0.80;;;19.40;97.50;;;;;;5125215;27;20468;-73
2022/09/28 12:01:56;;;;;;;1.20;0.90;;;19.40;97.00;;;;;;5104139;27;20427;-73
2022/09/28 12:04:32;;;;;;;0.90;0.80;;;19.40;96.60;;;;;;5103529;27;20490;-73
2022/09/28 12:07:21;;;;;;;3.13;0.97;;;19.40;96.80;;;;;;5117974;27;20824;-72
2022/09/28 12:09:56;;;;;;;2.07;0.93;;;19.40;97.50;;;;;;5123014;27;20451;-73
2022/09/28 12:12:44;;;;;;;1.83;1.00;;;19.40;98.50;;;;;;5102110;27;20433;-73
2022/09/28 12:15:21;;;;;;;2.40;0.60;;;19.50;97.70;;;;;;5099226;27;20462;-73
2022/09/28 12:17:54;;;;;;;0.67;0.67;;;19.50;97.80;;;;;;5122752;27;20441;-73
2022/09/28 12:20:23;;;;;;;1.37;0.80;;;19.50;97.60;;;;;;5120733;27;20451;-73
2022/09/28 12:23:16;;;;;;;1.90;0.73;;;19.50;96.70;;;;;;5104005;27;20592;-73
2022/09/28 12:25:47;;;;;;;0.80;0.70;;;19.50;97.10;;;;;;5121302;27;20544;-73
2022/09/28 12:28:30;;;;;;;0.70;0.60;;;19.60;96.80;;;;;;5118205;27;20430;-74
2022/09/28 12:31:04;;;;;;;1.27;0.67;;;19.60;97.60;;;;;;5117691;27;20458;-73
2022/09/28 12:33:29;;;;;;;0.60;0.60;;;19.60;96.50;;;;;;5100967;27;20514;-73
2022/09/28 12:36:27;;;;;;;1.23;0.47;;;19.70;96.20;;;;;;5101669;27;20737;-73
2022/09/28 12:39:14;;;;;;;0.50;0.43;;;19.70;96.80;;;;;;5131577;27;20173;-73
2022/09/28 12:42:19;;;;;;;0.50;0.40;;;19.70;95.30;;;;;;5102778;27;20768;-73
2022/09/28 12:44:59;;;;;;;0.80;0.50;;;19.70;95.10;;;;;;5117053;27;21038;-73
2022/09/28 12:47:43;;;;;;;0.53;0.53;;;19.70;94.40;;;;;;5116897;27;20513;-74
2022/09/28 12:50:44;;;;;;;0.70;0.70;;;19.70;94.40;;;;;;5108806;27;21067;-73
2022/09/28 12:53:31;;;;;;;0.50;0.47;;;19.70;95.30;;;;;;5109389;27;20788;-73
2022/09/28 12:56:10;;;;;;;0.90;0.70;;;19.70;95.40;;;;;;5103265;27;20465;-73
2022/09/28 12:59:15;;;;;;;1.07;0.80;;;19.80;95.60;;;;;;5118868;27;20775;-73
2022/09/28 13:01:43;;;;;;;2.10;0.60;;;19.80;96.10;;;;;;5123799;27;20433;-73
2022/09/28 13:04:36;;;;;;;0.57;0.57;;;19.90;95.90;;;;;;5131279;27;20465;-73
2022/09/28 13:07:05;;;;;;;0.77;0.67;;;19.80;95.90;;;;;;5125241;27;20418;-73
2022/09/28 13:09:57;;;;;;;0.70;0.70;;;19.90;96.00;;;;;;5112270;27;20705;-73
2022/09/28 13:12:35;;;;;;;0.50;0.40;;;19.80;96.10;;;;;;5101192;27;20491;-73
2022/09/28 13:15:33;;;;;;;0.50;0.47;;;19.80;95.80;;;;;;5129099;27;20950;-73
2022/09/28 13:18:26;;;;;;;0.67;0.60;;;19.70;96.00;;;;;;5063397;28;20504;-73
2022/09/28 13:21:36;;;;;;;0.60;0.60;;;19.70;96.60;;;;;;5128032;27;20446;-73
2022/09/28 13:24:04;;;;;;;1.13;0.90;;;19.70;96.80;;;;;;5128792;27;20982;-73
2022/09/28 13:26:42;;;;;;;0.63;0.63;;;19.70;96.90;;;;;;5099545;27;20525;-73
2022/09/28 13:29:18;;;;;;;1.63;0.70;;;19.70;96.60;;;;;;5132558;27;20447;-73